createdAt,value
2019-05-28T00:00:22.097Z,13.04
2019-05-28T00:01:21.087Z,12.96
2019-05-28T00:02:21.115Z,12.96
2019-05-28T00:03:21.077Z,12.95
2019-05-28T00:04:21.057Z,13.07
2019-05-28T00:05:21.042Z,13.08
2019-05-28T00:06:21.038Z,12.97
2019-05-28T00:07:21.038Z,12.95
2019-05-28T00:08:21.032Z,12.93
2019-05-28T00:09:21.023Z,13.01
2019-05-28T00:10:21.041Z,12.95
2019-05-28T00:11:20.977Z,12.90
2019-05-28T00:12:20.965Z,12.95
2019-05-28T00:13:20.966Z,13.00
2019-05-28T00:14:20.967Z,13.00
2019-05-28T00:15:20.940Z,12.96
2019-05-28T00:16:20.929Z,12.96
2019-05-28T00:17:20.925Z,12.95
2019-05-28T00:18:20.910Z,12.92
2019-05-28T00:19:20.885Z,13.01
2019-05-28T00:20:20.873Z,13.03
2019-05-28T00:21:20.876Z,12.97
2019-05-28T00:22:20.880Z,13.01
2019-05-28T00:23:20.869Z,13.04
2019-05-28T00:24:20.832Z,12.93
2019-05-28T00:25:24.542Z,12.92
2019-05-28T00:26:20.816Z,13.01
2019-05-28T00:27:20.797Z,12.93
2019-05-28T00:28:20.798Z,12.96
2019-05-28T00:29:20.771Z,12.89
2019-05-28T00:30:21.186Z,12.93
2019-05-28T00:31:20.759Z,12.95
2019-05-28T00:32:20.749Z,12.93
2019-05-28T00:33:20.748Z,12.95
2019-05-28T00:34:20.740Z,12.93
2019-05-28T00:35:20.711Z,12.93
2019-05-28T00:36:20.711Z,12.92
2019-05-28T00:37:20.697Z,12.87
2019-05-28T00:38:20.704Z,13.03
2019-05-28T00:39:20.656Z,12.87
2019-05-28T00:40:20.670Z,12.89
2019-05-28T00:41:20.642Z,12.90
2019-05-28T00:42:20.630Z,12.90
2019-05-28T00:43:20.631Z,12.90
2019-05-28T00:44:20.622Z,12.90
2019-05-28T00:45:20.591Z,13.01
2019-05-28T00:46:20.605Z,12.97
2019-05-28T00:47:20.567Z,12.93
2019-05-28T00:48:20.560Z,12.90
2019-05-28T00:49:20.564Z,12.95
2019-05-28T00:50:20.550Z,12.96
2019-05-28T00:51:20.529Z,12.93
2019-05-28T00:52:20.510Z,12.86
2019-05-28T00:53:20.507Z,12.93
2019-05-28T00:54:20.516Z,12.83
2019-05-28T00:55:20.476Z,12.96
2019-05-28T00:56:20.466Z,12.95
2019-05-28T00:57:20.467Z,12.82
2019-05-28T00:58:20.443Z,12.90
2019-05-28T00:59:20.447Z,12.78
2019-05-28T01:00:36.143Z,12.89
2019-05-28T01:01:21.408Z,12.87
2019-05-28T01:02:20.404Z,12.79
2019-05-28T01:03:20.389Z,12.82
2019-05-28T01:04:20.415Z,12.82
2019-05-28T01:05:20.373Z,12.83
2019-05-28T01:06:20.358Z,12.86
2019-05-28T01:07:20.341Z,12.93
2019-05-28T01:08:20.339Z,12.90
2019-05-28T01:09:20.345Z,12.95
2019-05-28T01:10:20.312Z,12.95
2019-05-28T01:11:20.297Z,12.92
2019-05-28T01:12:20.302Z,12.90
2019-05-28T01:13:20.279Z,12.90
2019-05-28T01:14:20.308Z,12.92
2019-05-28T01:15:20.262Z,12.95
2019-05-28T01:16:20.253Z,12.93
2019-05-28T01:17:20.231Z,12.95
2019-05-28T01:18:20.219Z,12.92
2019-05-28T01:19:20.214Z,12.90
2019-05-28T01:20:20.220Z,12.89
2019-05-28T01:21:20.191Z,12.82
2019-05-28T01:22:20.178Z,12.82
2019-05-28T01:23:20.169Z,12.92
2019-05-28T01:24:20.152Z,12.77
2019-05-28T01:25:20.164Z,12.87
2019-05-28T01:26:20.130Z,12.86
2019-05-28T01:27:20.152Z,12.90
2019-05-28T01:28:20.116Z,12.83
2019-05-28T01:29:20.103Z,12.83
2019-05-28T01:30:20.114Z,12.83
2019-05-28T01:31:20.088Z,12.92
2019-05-28T01:32:20.063Z,12.85
2019-05-28T01:33:20.053Z,12.77
2019-05-28T01:34:20.040Z,12.83
2019-05-28T01:35:20.062Z,12.83
2019-05-28T01:36:20.020Z,12.82
2019-05-28T01:37:20.013Z,12.79
2019-05-28T01:38:20.006Z,12.89
2019-05-28T01:39:20.004Z,12.79
2019-05-28T01:40:23.012Z,12.85
2019-05-28T01:41:19.992Z,12.85
2019-05-28T01:42:19.955Z,12.90
2019-05-28T01:43:19.946Z,12.89
2019-05-28T01:44:19.936Z,12.77
2019-05-28T01:45:19.953Z,12.86
2019-05-28T01:46:19.911Z,12.85
2019-05-28T01:47:19.909Z,12.82
2019-05-28T01:48:19.884Z,12.86
2019-05-28T01:49:19.875Z,12.83
2019-05-28T01:50:19.868Z,12.82
2019-05-28T01:51:19.901Z,12.85
2019-05-28T01:52:19.856Z,12.78
2019-05-28T01:53:19.831Z,12.85
2019-05-28T01:54:19.821Z,12.93
2019-05-28T01:55:19.851Z,12.90
2019-05-28T01:56:19.818Z,12.89
2019-05-28T01:57:19.788Z,12.86
2019-05-28T01:58:19.776Z,12.85
2019-05-28T01:59:19.765Z,12.77
2019-05-28T02:00:19.767Z,12.78
2019-05-28T02:01:19.758Z,12.89
2019-05-28T02:02:19.749Z,12.86
2019-05-28T02:03:19.724Z,12.75
2019-05-28T02:04:19.728Z,12.86
2019-05-28T02:05:19.703Z,12.83
2019-05-28T02:06:19.702Z,12.83
2019-05-28T02:07:19.675Z,12.82
2019-05-28T02:08:19.703Z,12.85
2019-05-28T02:09:19.656Z,12.85
2019-05-28T02:10:19.644Z,12.87
2019-05-28T02:11:19.698Z,12.89
2019-05-28T02:12:19.634Z,12.83
2019-05-28T02:13:19.612Z,12.85
2019-05-28T02:14:19.601Z,12.78
2019-05-28T02:15:19.625Z,12.77
2019-05-28T02:16:19.593Z,12.79
2019-05-28T02:17:19.555Z,12.79
2019-05-28T02:18:19.569Z,12.78
2019-05-28T02:19:19.570Z,12.77
2019-05-28T02:20:19.530Z,12.78
2019-05-28T02:21:19.550Z,12.79
2019-05-28T02:22:19.571Z,12.77
2019-05-28T02:23:19.494Z,12.78
2019-05-28T02:24:19.495Z,12.72
2019-05-28T02:25:19.472Z,12.74
2019-05-28T02:26:19.478Z,12.74
2019-05-28T02:27:19.469Z,12.72
2019-05-28T02:28:19.482Z,12.74
2019-05-28T02:29:19.422Z,12.82
2019-05-28T02:30:19.419Z,12.74
2019-05-28T02:31:27.873Z,12.78
2019-05-28T02:32:20.402Z,12.75
2019-05-28T02:33:19.383Z,12.74
2019-05-28T02:34:19.407Z,12.77
2019-05-28T02:35:19.357Z,12.77
2019-05-28T02:36:19.356Z,12.78
2019-05-28T02:37:19.363Z,12.75
2019-05-28T02:38:19.323Z,12.83
2019-05-28T02:39:19.309Z,12.71
2019-05-28T02:40:19.298Z,12.77
2019-05-28T02:41:19.296Z,12.77
2019-05-28T02:42:19.321Z,12.78
2019-05-28T02:43:19.266Z,12.79
2019-05-28T02:44:19.265Z,12.74
2019-05-28T02:45:19.266Z,12.78
2019-05-28T02:46:19.228Z,12.72
2019-05-28T02:47:19.255Z,12.77
2019-05-28T02:48:19.230Z,12.72
2019-05-28T02:49:19.195Z,12.78
2019-05-28T02:50:19.190Z,12.74
2019-05-28T02:51:19.174Z,12.77
2019-05-28T02:52:19.160Z,12.71
2019-05-28T02:53:19.167Z,12.78
2019-05-28T02:54:19.155Z,12.78
2019-05-28T02:55:19.134Z,12.78
2019-05-28T02:56:19.143Z,12.78
2019-05-28T02:57:19.134Z,12.78
2019-05-28T02:58:19.112Z,12.77
2019-05-28T02:59:19.086Z,12.79
2019-05-28T03:00:19.079Z,12.77
2019-05-28T03:01:19.083Z,12.71
2019-05-28T03:02:19.051Z,12.77
2019-05-28T03:03:19.056Z,12.72
2019-05-28T03:04:19.029Z,12.87
2019-05-28T03:05:19.026Z,12.75
2019-05-28T03:06:19.006Z,12.75
2019-05-28T03:07:19.008Z,12.85
2019-05-28T03:08:19.010Z,12.86
2019-05-28T03:09:18.986Z,12.79
2019-05-28T03:10:18.960Z,12.78
2019-05-28T03:11:18.956Z,12.78
2019-05-28T03:12:18.940Z,12.77
2019-05-28T03:13:18.975Z,12.74
2019-05-28T03:14:18.918Z,12.75
2019-05-28T03:15:18.910Z,12.82
2019-05-28T03:16:18.952Z,12.77
2019-05-28T03:17:18.895Z,12.78
2019-05-28T03:18:18.901Z,12.82
2019-05-28T03:19:18.861Z,12.79
2019-05-28T03:20:18.846Z,12.83
2019-05-28T03:21:18.846Z,12.79
2019-05-28T03:22:18.836Z,12.75
2019-05-28T03:23:18.818Z,12.74
2019-05-28T03:24:18.822Z,12.77
2019-05-28T03:25:18.815Z,12.75
2019-05-28T03:26:18.778Z,12.79
2019-05-28T03:27:18.772Z,12.77
2019-05-28T03:28:18.786Z,12.78
2019-05-28T03:29:18.768Z,12.79
2019-05-28T03:30:18.734Z,12.75
2019-05-28T03:31:18.725Z,12.78
2019-05-28T03:32:18.714Z,12.72
2019-05-28T03:33:18.731Z,12.72
2019-05-28T03:34:18.703Z,12.75
2019-05-28T03:35:18.679Z,12.75
2019-05-28T03:36:18.679Z,12.74
2019-05-28T03:37:18.659Z,12.74
2019-05-28T03:38:18.646Z,12.75
2019-05-28T03:39:18.652Z,12.75
2019-05-28T03:40:18.627Z,12.78
2019-05-28T03:41:18.613Z,12.77
2019-05-28T03:42:18.607Z,12.75
2019-05-28T03:43:18.597Z,12.82
2019-05-28T03:44:18.605Z,12.77
2019-05-28T03:45:18.568Z,12.77
2019-05-28T03:46:18.560Z,12.78
2019-05-28T03:47:18.545Z,12.77
2019-05-28T03:48:18.535Z,12.78
2019-05-28T03:49:18.542Z,12.78
2019-05-28T03:50:18.510Z,12.77
2019-05-28T03:51:18.500Z,12.79
2019-05-28T03:52:18.505Z,12.83
2019-05-28T03:53:18.477Z,12.85
2019-05-28T03:54:18.497Z,12.85
2019-05-28T03:55:18.453Z,12.85
2019-05-28T03:56:18.447Z,12.83
2019-05-28T03:57:18.444Z,12.79
2019-05-28T03:58:18.441Z,12.86
2019-05-28T03:59:18.409Z,12.77
2019-05-28T04:00:18.412Z,12.82
2019-05-28T04:01:18.387Z,12.77
2019-05-28T04:02:23.483Z,12.90
2019-05-28T04:03:19.365Z,12.90
2019-05-28T04:04:18.356Z,12.85
2019-05-28T04:05:18.363Z,12.86
2019-05-28T04:06:18.329Z,12.83
2019-05-28T04:07:18.317Z,12.95
2019-05-28T04:08:18.312Z,12.92
2019-05-28T04:09:18.300Z,12.97
2019-05-28T04:10:18.320Z,12.85
2019-05-28T04:11:18.276Z,12.95
2019-05-28T04:12:18.277Z,12.92
2019-05-28T04:13:18.252Z,12.90
2019-05-28T04:14:18.250Z,12.92
2019-05-28T04:15:18.245Z,13.01
2019-05-28T04:16:18.235Z,12.97
2019-05-28T04:17:18.211Z,12.92
2019-05-28T04:18:18.193Z,13.01
2019-05-28T04:19:18.195Z,12.96
2019-05-28T04:20:18.206Z,12.93
2019-05-28T04:21:18.162Z,13.03
2019-05-28T04:22:18.154Z,13.00
2019-05-28T04:23:18.143Z,13.07
2019-05-28T04:24:18.193Z,13.07
2019-05-28T04:25:18.139Z,13.03
2019-05-28T04:26:18.108Z,13.03
2019-05-28T04:27:18.097Z,13.01
2019-05-28T04:28:18.111Z,13.00
2019-05-28T04:29:18.068Z,13.03
2019-05-28T04:30:18.091Z,13.00
2019-05-28T04:31:18.052Z,13.03
2019-05-28T04:32:18.042Z,13.00
2019-05-28T04:33:18.031Z,13.01
2019-05-28T04:34:18.026Z,12.96
2019-05-28T04:35:18.017Z,13.03
2019-05-28T04:36:17.997Z,13.00
2019-05-28T04:37:17.984Z,12.97
2019-05-28T04:38:17.985Z,13.03
2019-05-28T04:39:18.057Z,13.01
2019-05-28T04:40:17.988Z,13.01
2019-05-28T04:41:17.944Z,13.03
2019-05-28T04:42:17.930Z,13.10
2019-05-28T04:43:17.914Z,12.97
2019-05-28T04:44:17.903Z,13.10
2019-05-28T04:45:17.907Z,13.04
2019-05-28T04:46:17.884Z,13.12
2019-05-28T04:47:17.880Z,13.10
2019-05-28T04:48:17.881Z,13.15
2019-05-28T04:49:17.857Z,13.12
2019-05-28T04:50:17.868Z,13.08
2019-05-28T04:51:17.825Z,13.07
2019-05-28T04:52:17.818Z,13.10
2019-05-28T04:53:17.821Z,13.12
2019-05-28T04:54:17.791Z,13.14
2019-05-28T04:55:17.797Z,13.15
2019-05-28T04:56:17.806Z,13.11
2019-05-28T04:57:17.756Z,13.15
2019-05-28T04:58:17.749Z,13.12
2019-05-28T04:59:17.734Z,13.15
2019-05-28T05:00:17.721Z,13.15
2019-05-28T05:01:17.732Z,13.15
2019-05-28T05:02:17.715Z,13.14
2019-05-28T05:03:17.693Z,13.15
2019-05-28T05:04:17.684Z,13.15
2019-05-28T05:05:17.669Z,13.15
2019-05-28T05:06:17.691Z,13.12
2019-05-28T05:07:17.647Z,13.14
2019-05-28T05:08:17.638Z,13.22
2019-05-28T05:09:17.628Z,13.19
2019-05-28T05:10:19.182Z,13.14
2019-05-28T05:11:17.605Z,13.19
2019-05-28T05:12:17.616Z,13.15
2019-05-28T05:13:17.585Z,13.19
2019-05-28T05:14:17.572Z,13.22
2019-05-28T05:15:17.576Z,13.19
2019-05-28T05:16:17.575Z,13.22
2019-05-28T05:17:17.564Z,13.20
2019-05-28T05:18:17.669Z,13.20
2019-05-28T05:19:17.523Z,13.19
2019-05-28T05:20:17.512Z,13.23
2019-05-28T05:21:17.524Z,13.20
2019-05-28T05:22:17.511Z,13.23
2019-05-28T05:23:17.473Z,13.25
2019-05-28T05:24:17.467Z,13.23
2019-05-28T05:25:17.649Z,13.20
2019-05-28T05:26:17.441Z,13.15
2019-05-28T05:27:17.448Z,13.22
2019-05-28T05:28:17.419Z,13.30
2019-05-28T05:29:17.405Z,13.22
2019-05-28T05:30:17.393Z,13.23
2019-05-28T05:31:17.384Z,13.23
2019-05-28T05:32:17.403Z,13.25
2019-05-28T05:33:20.340Z,13.29
2019-05-28T05:34:17.346Z,13.29
2019-05-28T05:35:17.333Z,13.26
2019-05-28T05:36:17.330Z,13.30
2019-05-28T05:37:17.345Z,13.28
2019-05-28T05:38:17.311Z,13.25
2019-05-28T05:39:17.289Z,13.23
2019-05-28T05:40:17.280Z,13.28
2019-05-28T05:41:17.272Z,13.23
2019-05-28T05:42:17.260Z,13.38
2019-05-28T05:43:17.270Z,13.38
2019-05-28T05:44:17.278Z,13.30
2019-05-28T05:45:17.228Z,13.32
2019-05-28T05:46:17.217Z,13.28
2019-05-28T05:47:17.213Z,13.26
2019-05-28T05:48:17.205Z,13.28
2019-05-28T05:49:17.178Z,13.28
2019-05-28T05:50:17.165Z,13.38
2019-05-28T05:51:17.173Z,13.38
2019-05-28T05:52:17.164Z,13.36
2019-05-28T05:53:17.155Z,13.29
2019-05-28T05:54:17.134Z,13.36
2019-05-28T05:55:17.111Z,13.29
2019-05-28T05:56:17.101Z,13.36
2019-05-28T05:57:17.087Z,13.36
2019-05-28T05:58:17.106Z,13.41
2019-05-28T05:59:17.070Z,13.38
2019-05-28T06:00:17.068Z,13.38
2019-05-28T06:01:17.058Z,13.44
2019-05-28T06:02:17.032Z,13.41
2019-05-28T06:03:17.044Z,13.36
2019-05-28T06:04:17.011Z,13.33
2019-05-28T06:05:17.000Z,13.33
2019-05-28T06:06:16.990Z,13.39
2019-05-28T06:07:16.980Z,13.38
2019-05-28T06:08:16.997Z,13.44
2019-05-28T06:09:16.961Z,13.48
2019-05-28T06:10:16.952Z,13.45
2019-05-28T06:11:16.942Z,13.45
2019-05-28T06:12:16.923Z,13.44
2019-05-28T06:13:16.929Z,13.44
2019-05-28T06:14:16.907Z,13.46
2019-05-28T06:15:16.889Z,13.39
2019-05-28T06:16:16.907Z,13.41
2019-05-28T06:17:16.869Z,13.39
2019-05-28T06:18:16.878Z,13.36
2019-05-28T06:19:16.895Z,13.45
2019-05-28T06:20:16.854Z,13.39
2019-05-28T06:21:18.956Z,13.39
2019-05-28T06:22:16.823Z,13.41
2019-05-28T06:23:16.826Z,13.46
2019-05-28T06:24:16.804Z,13.39
2019-05-28T06:25:16.789Z,13.45
2019-05-28T06:26:16.821Z,13.44
2019-05-28T06:27:19.336Z,13.39
2019-05-28T06:28:16.790Z,13.38
2019-05-28T06:29:16.735Z,13.39
2019-05-28T06:30:16.733Z,13.48
2019-05-28T06:31:16.713Z,13.39
2019-05-28T06:32:16.724Z,13.41
2019-05-28T06:33:16.711Z,13.36
2019-05-28T06:34:16.679Z,13.48
2019-05-28T06:35:16.675Z,13.39
2019-05-28T06:36:16.665Z,13.51
2019-05-28T06:37:16.647Z,13.52
2019-05-28T06:38:16.640Z,13.52
2019-05-28T06:39:16.644Z,13.49
2019-05-28T06:40:16.611Z,13.42
2019-05-28T06:41:16.599Z,13.42
2019-05-28T06:42:16.588Z,13.52
2019-05-28T06:43:16.577Z,13.54
2019-05-28T06:44:16.597Z,13.54
2019-05-28T06:45:16.558Z,13.52
2019-05-28T06:46:16.575Z,13.39
2019-05-28T06:47:16.533Z,13.49
2019-05-28T06:48:16.528Z,13.51
2019-05-28T06:49:16.534Z,13.41
2019-05-28T06:50:16.507Z,13.51
2019-05-28T06:51:16.490Z,13.51
2019-05-28T06:52:16.481Z,13.41
2019-05-28T06:53:16.479Z,13.54
2019-05-28T06:54:16.488Z,13.51
2019-05-28T06:55:16.452Z,13.54
2019-05-28T06:56:16.450Z,13.54
2019-05-28T06:57:22.663Z,13.39
2019-05-28T06:58:17.419Z,13.49
2019-05-28T06:59:16.436Z,13.55
2019-05-28T07:00:16.403Z,13.51
2019-05-28T07:01:16.387Z,13.41
2019-05-28T07:02:16.366Z,13.54
2019-05-28T07:03:16.372Z,13.51
2019-05-28T07:04:31.751Z,13.45
2019-05-28T07:05:17.336Z,13.41
2019-05-28T07:06:16.327Z,13.54
2019-05-28T07:07:16.337Z,13.51
2019-05-28T07:08:16.309Z,13.62
2019-05-28T07:09:16.318Z,13.54
2019-05-28T07:10:16.283Z,13.59
2019-05-28T07:11:16.268Z,13.48
2019-05-28T07:12:18.303Z,13.55
2019-05-28T07:13:16.260Z,13.51
2019-05-28T07:14:16.269Z,13.51
2019-05-28T07:15:16.262Z,13.49
2019-05-28T07:16:16.214Z,13.49
2019-05-28T07:17:16.208Z,13.62
2019-05-28T07:18:16.196Z,13.59
2019-05-28T07:19:24.618Z,13.67
2019-05-28T07:20:17.189Z,13.55
2019-05-28T07:21:16.182Z,13.52
2019-05-28T07:22:16.192Z,13.63
2019-05-28T07:23:16.147Z,13.66
2019-05-28T07:24:16.134Z,13.57
2019-05-28T07:25:16.143Z,13.59
2019-05-28T07:26:16.107Z,13.60
2019-05-28T07:27:16.091Z,13.60
2019-05-28T07:28:16.088Z,13.63
2019-05-28T07:29:16.074Z,13.64
2019-05-28T07:30:16.090Z,13.66
2019-05-28T07:31:16.085Z,13.59
2019-05-28T07:32:16.086Z,13.54
2019-05-28T07:33:16.036Z,13.62
2019-05-28T07:34:29.688Z,13.67
2019-05-28T07:35:17.035Z,13.54
2019-05-28T07:36:15.998Z,13.62
2019-05-28T07:37:15.996Z,13.69
2019-05-28T07:38:15.972Z,13.63
2019-05-28T07:39:15.961Z,13.55
2019-05-28T07:40:30.491Z,13.70
2019-05-28T07:41:16.942Z,13.64
2019-05-28T07:42:31.549Z,13.71
2019-05-28T07:43:16.916Z,13.66
2019-05-28T07:44:15.905Z,13.67
2019-05-28T07:45:15.934Z,13.66
2019-05-28T07:46:15.888Z,13.69
2019-05-28T07:47:15.901Z,13.75
2019-05-28T07:48:15.873Z,13.77
2019-05-28T07:49:15.873Z,13.78
2019-05-28T07:50:15.845Z,13.71
2019-05-28T07:51:15.846Z,13.73
2019-05-28T07:52:15.824Z,13.73
2019-05-28T07:53:15.811Z,13.75
2019-05-28T07:54:15.810Z,13.78
2019-05-28T07:55:15.788Z,13.71
2019-05-28T07:56:15.793Z,13.82
2019-05-28T07:57:15.770Z,13.73
2019-05-28T07:58:15.761Z,13.77
2019-05-28T07:59:15.744Z,13.82
2019-05-28T08:00:15.779Z,13.88
2019-05-28T08:01:15.745Z,13.87
2019-05-28T08:02:15.727Z,13.88
2019-05-28T08:03:15.701Z,13.87
2019-05-28T08:04:15.754Z,13.85
2019-05-28T08:05:17.267Z,13.91
2019-05-28T08:06:15.722Z,13.95
2019-05-28T08:07:16.287Z,13.91
2019-05-28T08:08:15.642Z,13.89
2019-05-28T08:09:15.644Z,14.00
2019-05-28T08:10:15.622Z,13.91
2019-05-28T08:11:15.624Z,13.95
2019-05-28T08:12:15.625Z,14.00
2019-05-28T08:13:15.586Z,14.09
2019-05-28T08:14:15.608Z,14.09
2019-05-28T08:15:15.566Z,14.06
2019-05-28T08:16:18.505Z,14.02
2019-05-28T08:17:15.570Z,14.06
2019-05-28T08:18:15.558Z,14.15
2019-05-28T08:19:15.521Z,14.04
2019-05-28T08:20:18.448Z,14.14
2019-05-28T08:21:15.524Z,14.17
2019-05-28T08:22:15.501Z,14.22
2019-05-28T08:23:15.484Z,14.17
2019-05-28T08:24:15.471Z,14.24
2019-05-28T08:25:33.417Z,14.18
2019-05-28T08:26:16.464Z,14.20
2019-05-28T08:27:15.437Z,14.24
2019-05-28T08:28:19.802Z,14.29
2019-05-28T08:29:16.417Z,14.18
2019-05-28T08:30:15.418Z,14.35
2019-05-28T08:31:20.723Z,14.33
2019-05-28T08:32:16.380Z,14.32
2019-05-28T08:33:15.404Z,14.17
2019-05-28T08:34:19.358Z,14.29
2019-05-28T08:35:15.347Z,14.33
2019-05-28T08:36:15.340Z,14.28
2019-05-28T08:37:15.359Z,14.28
2019-05-28T08:38:15.316Z,14.21
2019-05-28T08:39:15.303Z,14.27
2019-05-28T08:40:15.297Z,14.32
2019-05-28T08:41:15.297Z,14.33
2019-05-28T08:42:15.286Z,14.39
2019-05-28T08:43:15.269Z,14.37
2019-05-28T08:44:15.259Z,14.36
2019-05-28T08:45:15.254Z,14.40
2019-05-28T08:46:15.232Z,14.50
2019-05-28T08:47:15.235Z,14.51
2019-05-28T08:48:15.207Z,14.42
2019-05-28T08:49:15.198Z,14.46
2019-05-28T08:50:15.183Z,14.42
2019-05-28T08:51:15.184Z,14.52
2019-05-28T08:52:15.212Z,14.50
2019-05-28T08:53:15.154Z,14.55
2019-05-28T08:54:15.147Z,14.52
2019-05-28T08:55:15.136Z,14.57
2019-05-28T08:56:15.119Z,14.57
2019-05-28T08:57:15.125Z,14.46
2019-05-28T08:58:15.098Z,14.58
2019-05-28T08:59:15.096Z,14.58
2019-05-28T09:00:15.116Z,14.69
2019-05-28T09:01:15.061Z,14.65
2019-05-28T09:02:26.984Z,14.73
2019-05-28T09:03:16.054Z,14.62
2019-05-28T09:04:15.035Z,14.70
2019-05-28T09:05:25.918Z,14.70
2019-05-28T09:06:16.015Z,14.81
2019-05-28T09:07:15.012Z,14.78
2019-05-28T09:08:14.994Z,14.80
2019-05-28T09:09:15.004Z,14.78
2019-05-28T09:10:14.967Z,14.88
2019-05-28T09:11:15.011Z,14.94
2019-05-28T09:12:14.971Z,14.81
2019-05-28T09:13:14.959Z,14.83
2019-05-28T09:14:14.923Z,14.84
2019-05-28T09:15:14.910Z,14.92
2019-05-28T09:16:14.901Z,14.98
2019-05-28T09:17:14.893Z,14.95
2019-05-28T09:18:14.896Z,15.02
2019-05-28T09:19:14.866Z,14.98
2019-05-28T09:20:14.854Z,14.99
2019-05-28T09:21:14.847Z,15.10
2019-05-28T09:22:25.106Z,15.11
2019-05-28T09:23:15.845Z,15.01
2019-05-28T09:24:14.816Z,15.01
2019-05-28T09:25:14.797Z,15.11
2019-05-28T09:26:14.824Z,15.11
2019-05-28T09:27:14.779Z,15.14
2019-05-28T09:28:29.433Z,15.10
2019-05-28T09:29:15.750Z,15.11
2019-05-28T09:30:14.746Z,15.16
2019-05-28T09:31:14.744Z,15.28
2019-05-28T09:32:14.737Z,15.20
2019-05-28T09:33:14.769Z,15.20
2019-05-28T09:34:14.709Z,15.25
2019-05-28T09:35:14.701Z,15.25
2019-05-28T09:36:14.683Z,15.28
2019-05-28T09:37:14.668Z,15.36
2019-05-28T09:38:14.687Z,15.32
2019-05-28T09:39:14.673Z,15.36
2019-05-28T09:40:14.635Z,15.38
2019-05-28T09:41:14.646Z,15.38
2019-05-28T09:42:14.617Z,15.47
2019-05-28T09:43:14.604Z,15.41
2019-05-28T09:44:14.624Z,15.44
2019-05-28T09:45:22.677Z,15.44
2019-05-28T09:46:15.568Z,15.41
2019-05-28T09:47:14.580Z,15.53
2019-05-28T09:48:14.551Z,15.54
2019-05-28T09:49:14.550Z,15.59
2019-05-28T09:50:29.997Z,15.56
2019-05-28T09:51:15.514Z,15.53
2019-05-28T09:52:14.551Z,15.59
2019-05-28T09:53:14.491Z,15.46
2019-05-28T09:54:14.507Z,15.56
2019-05-28T09:55:14.569Z,15.54
2019-05-28T09:56:14.487Z,15.57
2019-05-28T09:57:14.469Z,15.56
2019-05-28T09:58:14.442Z,15.59
2019-05-28T09:59:14.448Z,15.57
2019-05-28T10:00:15.289Z,15.53
2019-05-28T10:01:14.411Z,15.56
2019-05-28T10:02:14.393Z,15.71
2019-05-28T10:03:14.391Z,15.64
2019-05-28T10:04:14.442Z,15.65
2019-05-28T10:05:14.358Z,15.71
2019-05-28T10:06:17.593Z,15.68
2019-05-28T10:07:14.447Z,15.75
2019-05-28T10:08:14.345Z,15.69
2019-05-28T10:09:14.317Z,15.67
2019-05-28T10:10:14.317Z,15.72
2019-05-28T10:11:14.295Z,15.68
2019-05-28T10:12:14.288Z,15.75
2019-05-28T10:13:14.312Z,15.84
2019-05-28T10:14:14.278Z,15.78
2019-05-28T10:15:14.313Z,15.78
2019-05-28T10:16:14.249Z,15.84
2019-05-28T10:17:14.228Z,15.92
2019-05-28T10:18:14.232Z,15.96
2019-05-28T10:19:14.207Z,15.96
2019-05-28T10:20:14.213Z,16.00
2019-05-28T10:21:18.777Z,15.97
2019-05-28T10:22:15.178Z,15.96
2019-05-28T10:23:14.161Z,16.07
2019-05-28T10:24:14.172Z,16.23
2019-05-28T10:25:14.267Z,16.14
2019-05-28T10:26:14.180Z,16.28
2019-05-28T10:27:14.222Z,16.34
2019-05-28T10:28:14.142Z,16.38
2019-05-28T10:29:14.239Z,16.56
2019-05-28T10:30:14.181Z,16.57
2019-05-28T10:31:14.072Z,16.58
2019-05-28T10:32:14.084Z,16.66
2019-05-28T10:33:14.074Z,16.68
2019-05-28T10:34:14.050Z,16.66
2019-05-28T10:35:14.064Z,16.73
2019-05-28T10:36:14.107Z,16.73
2019-05-28T10:37:14.022Z,16.82
2019-05-28T10:38:16.661Z,16.88
2019-05-28T10:39:13.991Z,16.89
2019-05-28T10:40:13.988Z,16.88
2019-05-28T10:41:13.996Z,17.01
2019-05-28T10:42:13.985Z,17.03
2019-05-28T10:43:13.938Z,17.00
2019-05-28T10:44:13.957Z,16.98
2019-05-28T10:45:13.956Z,16.98
2019-05-28T10:46:14.205Z,17.03
2019-05-28T10:47:13.898Z,17.06
2019-05-28T10:48:13.894Z,17.00
2019-05-28T10:49:13.896Z,16.94
2019-05-28T10:50:13.869Z,17.03
2019-05-28T10:51:13.883Z,16.97
2019-05-28T10:52:13.846Z,17.01
2019-05-28T10:53:13.983Z,17.01
2019-05-28T10:54:13.839Z,17.04
2019-05-28T10:55:16.027Z,17.08
2019-05-28T10:56:13.820Z,17.15
2019-05-28T10:57:13.795Z,17.12
2019-05-28T10:58:13.773Z,17.21
2019-05-28T10:59:13.776Z,17.15
2019-05-28T11:00:13.757Z,17.25
2019-05-28T11:01:13.799Z,17.18
2019-05-28T11:02:13.737Z,17.15
2019-05-28T11:03:13.734Z,17.34
2019-05-28T11:04:13.707Z,17.37
2019-05-28T11:05:13.707Z,17.33
2019-05-28T11:06:13.706Z,17.52
2019-05-28T11:07:13.703Z,17.52
2019-05-28T11:08:13.660Z,17.52
2019-05-28T11:09:13.671Z,17.66
2019-05-28T11:10:23.800Z,17.75
2019-05-28T11:11:14.678Z,17.79
2019-05-28T11:12:13.623Z,17.75
2019-05-28T11:13:13.608Z,17.62
2019-05-28T11:14:13.597Z,17.63
2019-05-28T11:15:13.588Z,17.66
2019-05-28T11:16:13.599Z,17.63
2019-05-28T11:17:13.585Z,17.58
2019-05-28T11:18:13.565Z,17.58
2019-05-28T11:19:13.586Z,17.56
2019-05-28T11:20:13.527Z,17.59
2019-05-28T11:21:13.515Z,17.68
2019-05-28T11:22:13.526Z,17.66
2019-05-28T11:23:13.498Z,17.78
2019-05-28T11:24:13.484Z,17.70
2019-05-28T11:25:13.486Z,17.72
2019-05-28T11:26:13.466Z,17.75
2019-05-28T11:27:13.482Z,17.70
2019-05-28T11:28:13.446Z,17.71
2019-05-28T11:29:13.460Z,17.68
2019-05-28T11:30:13.423Z,17.77
2019-05-28T11:31:13.407Z,17.89
2019-05-28T11:32:13.429Z,17.90
2019-05-28T11:33:17.222Z,17.93
2019-05-28T11:34:13.376Z,18.07
2019-05-28T11:35:13.371Z,18.15
2019-05-28T11:36:13.357Z,18.20
2019-05-28T11:37:13.360Z,18.26
2019-05-28T11:38:13.328Z,18.32
2019-05-28T11:39:13.324Z,18.35
2019-05-28T11:40:13.374Z,18.48
2019-05-28T11:41:13.309Z,18.52
2019-05-28T11:42:13.309Z,18.50
2019-05-28T11:43:13.290Z,18.57
2019-05-28T11:44:13.293Z,18.58
2019-05-28T11:45:14.987Z,18.62
2019-05-28T11:46:13.242Z,18.58
2019-05-28T11:47:13.233Z,18.52
2019-05-28T11:48:13.251Z,18.57
2019-05-28T11:49:13.217Z,18.54
2019-05-28T11:50:13.200Z,18.50
2019-05-28T11:51:13.218Z,18.58
2019-05-28T11:52:13.191Z,18.72
2019-05-28T11:53:13.185Z,18.69
2019-05-28T11:54:13.162Z,18.73
2019-05-28T11:55:13.142Z,18.82
2019-05-28T11:56:13.141Z,18.91
2019-05-28T11:57:13.125Z,19.04
2019-05-28T11:58:13.134Z,19.08
2019-05-28T11:59:13.097Z,19.08
2019-05-28T12:00:13.102Z,19.11
2019-05-28T12:01:13.076Z,19.13
2019-05-28T12:02:13.070Z,19.14
2019-05-28T12:03:13.069Z,19.18
2019-05-28T12:04:13.060Z,19.25
2019-05-28T12:05:13.043Z,19.28
2019-05-28T12:06:13.032Z,19.29
2019-05-28T12:07:25.729Z,19.26
2019-05-28T12:08:14.014Z,19.39
2019-05-28T12:09:12.998Z,19.44
2019-05-28T12:10:12.987Z,19.47
2019-05-28T12:11:12.981Z,19.58
2019-05-28T12:12:12.957Z,19.50
2019-05-28T12:13:12.969Z,19.46
2019-05-28T12:14:12.941Z,19.50
2019-05-28T12:15:12.920Z,19.50
2019-05-28T12:16:12.912Z,19.55
2019-05-28T12:17:12.926Z,19.55
2019-05-28T12:18:12.892Z,19.61
2019-05-28T12:19:12.908Z,19.63
2019-05-28T12:20:13.404Z,19.65
2019-05-28T12:21:12.900Z,19.65
2019-05-28T12:22:12.855Z,19.69
2019-05-28T12:23:12.847Z,19.63
2019-05-28T12:24:12.849Z,19.71
2019-05-28T12:25:12.819Z,19.63
2019-05-28T12:26:12.827Z,19.65
2019-05-28T12:27:12.809Z,19.61
2019-05-28T12:28:12.791Z,19.59
2019-05-28T12:29:12.814Z,19.50
2019-05-28T12:30:12.770Z,19.46
2019-05-28T12:31:12.754Z,19.47
2019-05-28T12:32:12.865Z,19.46
2019-05-28T12:33:12.774Z,19.41
2019-05-28T12:34:12.744Z,19.40
2019-05-28T12:35:27.178Z,19.32
2019-05-28T12:36:13.709Z,19.25
2019-05-28T12:37:12.685Z,19.28
2019-05-28T12:38:12.685Z,19.14
2019-05-28T12:39:12.679Z,19.13
2019-05-28T12:40:12.681Z,19.16
2019-05-28T12:41:12.720Z,19.07
2019-05-28T12:42:12.639Z,19.08
2019-05-28T12:43:12.927Z,19.08
2019-05-28T12:44:12.641Z,19.18
2019-05-28T12:45:12.739Z,19.13
2019-05-28T12:46:12.586Z,19.26
2019-05-28T12:47:14.883Z,19.23
2019-05-28T12:48:13.438Z,19.23
2019-05-28T12:49:12.618Z,19.25
2019-05-28T12:50:19.718Z,19.25
2019-05-28T12:51:13.542Z,19.47
2019-05-28T12:52:12.533Z,19.32